createdAt,value
2023-05-19T00:01:49.880Z,100.00
2023-05-19T00:04:17.092Z,100.00
2023-05-19T00:06:45.067Z,100.00
2023-05-19T00:09:12.568Z,100.00
2023-05-19T00:11:40.285Z,100.00
2023-05-19T00:14:09.516Z,100.00
2023-05-19T00:16:40.382Z,100.00
2023-05-19T00:19:10.038Z,100.00
2023-05-19T00:21:38.440Z,100.00
2023-05-19T00:24:05.614Z,100.00
2023-05-19T00:26:32.801Z,100.00
2023-05-19T00:28:59.677Z,100.00
2023-05-19T00:31:26.289Z,100.00
2023-05-19T00:33:52.864Z,100.00
2023-05-19T00:36:19.464Z,100.00
2023-05-19T00:38:46.368Z,100.00
2023-05-19T00:41:13.106Z,100.00
2023-05-19T00:43:39.791Z,100.00
2023-05-19T00:46:07.690Z,100.00
2023-05-19T00:48:34.432Z,100.00
2023-05-19T00:51:04.922Z,100.00
2023-05-19T00:53:33.760Z,100.00
2023-05-19T00:56:01.245Z,100.00
2023-05-19T00:58:30.300Z,100.00
2023-05-19T01:01:05.320Z,100.00
2023-05-19T01:03:35.719Z,100.00
2023-05-19T01:06:05.787Z,100.00
2023-05-19T01:08:33.670Z,100.00
2023-05-19T01:11:00.374Z,100.00
2023-05-19T01:13:31.020Z,100.00
2023-05-19T01:16:09.008Z,100.00
2023-05-19T01:18:47.805Z,100.00
2023-05-19T01:21:23.617Z,100.00
2023-05-19T01:24:02.237Z,100.00
2023-05-19T01:27:18.249Z,100.00
2023-05-19T01:30:10.728Z,100.00
2023-05-19T01:32:40.803Z,100.00
2023-05-19T01:35:09.712Z,100.00
2023-05-19T01:37:38.917Z,100.00
2023-05-19T01:40:09.978Z,100.00
2023-05-19T01:42:39.876Z,100.00
2023-05-19T01:45:10.411Z,100.00
2023-05-19T01:47:39.864Z,100.00
2023-05-19T01:50:07.333Z,100.00
2023-05-19T01:52:34.173Z,100.00
2023-05-19T01:55:00.886Z,100.00
2023-05-19T01:57:39.646Z,100.00
2023-05-19T02:00:23.857Z,100.00
2023-05-19T02:03:16.731Z,100.00
2023-05-19T02:05:59.444Z,100.00
2023-05-19T02:08:55.398Z,100.00
2023-05-19T02:11:25.462Z,100.00
2023-05-19T02:13:56.252Z,100.00
2023-05-19T02:16:28.527Z,100.00
2023-05-19T02:18:56.473Z,100.00
2023-05-19T02:21:23.057Z,100.00
2023-05-19T02:23:50.990Z,100.00
2023-05-19T02:26:17.525Z,100.00
2023-05-19T02:28:44.428Z,100.00
2023-05-19T02:31:11.146Z,100.00
2023-05-19T02:33:37.832Z,100.00
2023-05-19T02:36:05.222Z,100.00
2023-05-19T02:38:32.636Z,100.00
2023-05-19T02:40:59.288Z,100.00
2023-05-19T02:43:25.835Z,100.00
2023-05-19T02:45:52.420Z,100.00
2023-05-19T02:48:19.003Z,100.00
2023-05-19T02:50:45.688Z,100.00
2023-05-19T02:53:12.242Z,100.00
2023-05-19T02:55:38.809Z,100.00
2023-05-19T02:58:05.386Z,100.00
2023-05-19T03:00:32.122Z,100.00
2023-05-19T03:03:02.702Z,100.00
2023-05-19T03:05:30.424Z,100.00
2023-05-19T03:07:57.116Z,100.00
2023-05-19T03:10:23.670Z,100.00
2023-05-19T03:12:50.996Z,100.00
2023-05-19T03:15:18.817Z,100.00
2023-05-19T03:17:45.608Z,100.00
2023-05-19T03:20:12.529Z,100.00
2023-05-19T03:22:39.178Z,100.00
2023-05-19T03:25:05.994Z,100.00
2023-05-19T03:27:32.566Z,100.00
2023-05-19T03:29:59.102Z,100.00
2023-05-19T03:32:25.874Z,100.00
2023-05-19T03:34:52.694Z,100.00
2023-05-19T03:37:19.341Z,100.00
2023-05-19T03:39:45.908Z,100.00
2023-05-19T03:42:12.459Z,100.00
2023-05-19T03:44:39.472Z,100.00
2023-05-19T03:47:06.318Z,100.00
2023-05-19T03:49:32.853Z,100.00
2023-05-19T03:51:59.385Z,100.00
2023-05-19T03:54:26.227Z,100.00
2023-05-19T03:56:52.718Z,100.00
2023-05-19T03:59:19.291Z,100.00
2023-05-19T04:01:46.542Z,100.00
2023-05-19T04:04:13.096Z,100.00
2023-05-19T04:06:39.682Z,100.00
2023-05-19T04:09:13.492Z,100.00
2023-05-19T04:11:40.732Z,100.00
2023-05-19T04:14:07.825Z,100.00
2023-05-19T04:16:34.874Z,100.00
2023-05-19T04:19:01.865Z,100.00
2023-05-19T04:21:28.510Z,100.00
2023-05-19T04:23:55.454Z,100.00
2023-05-19T04:26:22.764Z,100.00
2023-05-19T04:28:49.600Z,100.00
2023-05-19T04:31:16.181Z,100.00
2023-05-19T04:33:42.944Z,100.00
2023-05-19T04:36:11.542Z,100.00
2023-05-19T04:38:39.881Z,100.00
2023-05-19T04:41:10.721Z,100.00
2023-05-19T04:43:41.607Z,100.00
2023-05-19T04:46:13.215Z,100.00
2023-05-19T04:48:41.111Z,100.00
2023-05-19T04:51:07.710Z,100.00
2023-05-19T04:53:34.447Z,100.00
2023-05-19T04:56:02.171Z,100.00
2023-05-19T04:58:28.725Z,100.00
2023-05-19T05:00:58.712Z,100.00
2023-05-19T05:03:26.434Z,100.00
2023-05-19T05:05:53.249Z,100.00
2023-05-19T05:08:23.280Z,100.00
2023-05-19T05:10:52.645Z,100.00
2023-05-19T05:13:22.410Z,100.00
2023-05-19T05:15:49.334Z,100.00
2023-05-19T05:18:16.335Z,100.00
2023-05-19T05:20:43.900Z,100.00
2023-05-19T05:23:14.590Z,100.00
2023-05-19T05:25:42.151Z,100.00
2023-05-19T05:28:09.199Z,100.00
2023-05-19T05:30:36.541Z,100.00
2023-05-19T05:33:03.359Z,100.00
2023-05-19T05:35:30.099Z,100.00
2023-05-19T05:37:56.789Z,100.00
2023-05-19T05:40:23.410Z,100.00
2023-05-19T05:42:50.000Z,100.00
2023-05-19T05:45:16.714Z,100.00
2023-05-19T05:47:43.606Z,100.00
2023-05-19T05:50:10.816Z,100.00
2023-05-19T05:52:38.312Z,100.00
2023-05-19T05:55:05.705Z,100.00
2023-05-19T05:57:35.326Z,100.00
2023-05-19T06:00:02.351Z,100.00
2023-05-19T06:02:30.015Z,100.00
2023-05-19T06:04:56.944Z,100.00
2023-05-19T06:07:24.396Z,100.00
2023-05-19T06:09:51.148Z,100.00
2023-05-19T06:12:18.068Z,100.00
2023-05-19T06:14:44.734Z,100.00
2023-05-19T06:17:11.508Z,100.00
2023-05-19T06:19:38.037Z,100.00
2023-05-19T06:22:04.638Z,100.00
2023-05-19T06:24:31.254Z,100.00
2023-05-19T06:26:57.938Z,100.00
2023-05-19T06:29:24.484Z,100.00
2023-05-19T06:31:51.399Z,100.00
2023-05-19T06:34:18.075Z,100.00
2023-05-19T06:36:44.729Z,100.00
2023-05-19T06:39:11.275Z,100.00
2023-05-19T06:41:37.855Z,100.00
2023-05-19T06:44:06.800Z,100.00
2023-05-19T06:46:33.421Z,100.00
2023-05-19T06:49:00.142Z,100.00
2023-05-19T06:51:26.965Z,100.00
2023-05-19T06:53:53.493Z,100.00
2023-05-19T06:56:20.091Z,100.00
2023-05-19T06:58:46.707Z,100.00
2023-05-19T07:01:13.214Z,100.00
2023-05-19T07:03:39.840Z,100.00
2023-05-19T07:06:08.096Z,100.00
2023-05-19T07:08:37.122Z,100.00
2023-05-19T07:11:03.768Z,100.00
2023-05-19T07:13:30.493Z,100.00
2023-05-19T07:15:57.147Z,100.00
2023-05-19T07:18:25.618Z,100.00
2023-05-19T07:20:53.737Z,100.00
2023-05-19T07:23:20.464Z,100.00
2023-05-19T07:25:47.077Z,100.00
2023-05-19T07:28:13.798Z,100.00
2023-05-19T07:30:40.455Z,100.00
2023-05-19T07:33:07.229Z,100.00
2023-05-19T07:35:33.969Z,100.00
2023-05-19T07:38:00.762Z,100.00
2023-05-19T07:40:27.331Z,100.00
2023-05-19T07:42:53.900Z,100.00
2023-05-19T07:45:20.506Z,100.00
2023-05-19T07:47:47.230Z,100.00
2023-05-19T07:50:14.049Z,100.00
2023-05-19T07:52:40.745Z,100.00
2023-05-19T07:55:07.313Z,100.00
2023-05-19T07:57:33.869Z,100.00
2023-05-19T08:00:00.467Z,100.00
2023-05-19T08:02:27.464Z,100.00
2023-05-19T08:04:54.259Z,100.00
2023-05-19T08:07:20.980Z,100.00
2023-05-19T08:09:47.508Z,100.00
2023-05-19T08:12:14.369Z,100.00
2023-05-19T08:14:41.255Z,100.00
2023-05-19T08:17:07.899Z,100.00
2023-05-19T08:19:34.438Z,100.00
2023-05-19T08:22:01.353Z,100.00
2023-05-19T08:24:32.802Z,100.00
2023-05-19T08:26:59.545Z,100.00
2023-05-19T08:29:26.291Z,100.00
2023-05-19T08:31:53.510Z,100.00
2023-05-19T08:34:20.287Z,100.00
2023-05-19T08:36:47.703Z,100.00
2023-05-19T08:39:16.207Z,100.00
2023-05-19T08:41:42.923Z,100.00
2023-05-19T08:44:10.118Z,100.00
2023-05-19T08:46:37.066Z,100.00
2023-05-19T08:49:09.318Z,100.00
2023-05-19T08:52:05.517Z,100.00
2023-05-19T08:54:45.906Z,100.00
2023-05-19T08:57:13.615Z,100.00
2023-05-19T08:59:41.558Z,100.00
2023-05-19T09:02:11.417Z,100.00
2023-05-19T09:04:39.736Z,100.00
2023-05-19T09:07:06.631Z,100.00
2023-05-19T09:09:33.197Z,100.00
2023-05-19T09:11:59.860Z,100.00
2023-05-19T09:14:26.871Z,100.00
2023-05-19T09:16:54.139Z,100.00
2023-05-19T09:19:21.318Z,100.00
2023-05-19T09:22:00.222Z,100.00
2023-05-19T09:24:27.257Z,100.00
2023-05-19T09:26:57.927Z,100.00
2023-05-19T09:29:26.590Z,100.00
2023-05-19T09:32:00.527Z,100.00
2023-05-19T09:34:27.890Z,93.82
2023-05-19T09:36:54.537Z,94.88
2023-05-19T09:39:23.521Z,85.88
2023-05-19T09:41:54.842Z,91.79
2023-05-19T09:44:21.356Z,100.00
2023-05-19T09:46:49.370Z,94.70
2023-05-19T09:49:24.094Z,93.37
2023-05-19T09:52:03.809Z,100.00
2023-05-19T09:54:32.510Z,100.00
2023-05-19T09:57:00.961Z,90.33
2023-05-19T09:59:32.045Z,92.78
2023-05-19T10:02:00.735Z,82.15
2023-05-19T10:04:28.911Z,83.15
2023-05-19T10:06:59.907Z,79.74
2023-05-19T10:09:28.896Z,71.98
2023-05-19T10:11:59.203Z,75.13
2023-05-19T10:14:29.956Z,86.93
2023-05-19T10:16:58.942Z,78.88
2023-05-19T10:19:27.779Z,87.15
2023-05-19T10:21:55.235Z,78.11
2023-05-19T10:24:22.021Z,71.52
2023-05-19T10:26:57.666Z,78.86
2023-05-19T10:29:28.730Z,79.46
2023-05-19T10:31:59.157Z,77.60
2023-05-19T10:35:10.605Z,68.44
2023-05-19T10:37:59.142Z,63.65
2023-05-19T10:40:43.549Z,70.46
2023-05-19T10:43:26.227Z,70.87
2023-05-19T10:45:55.537Z,71.77
2023-05-19T10:48:23.209Z,63.73
2023-05-19T10:50:54.841Z,70.61
2023-05-19T10:53:22.762Z,70.41
2023-05-19T10:55:53.417Z,66.83
2023-05-19T10:58:49.789Z,61.90
2023-05-19T11:01:18.287Z,60.94
2023-05-19T11:03:57.373Z,60.24
2023-05-19T11:06:36.012Z,58.72
2023-05-19T11:09:15.910Z,60.89
2023-05-19T11:11:50.002Z,57.57
2023-05-19T11:14:26.572Z,61.79
2023-05-19T11:16:57.564Z,62.12
2023-05-19T11:19:31.514Z,65.99
2023-05-19T11:22:11.105Z,58.91
2023-05-19T11:24:44.598Z,60.85
2023-05-19T11:27:20.033Z,60.99
2023-05-19T11:29:48.429Z,54.82
2023-05-19T11:32:16.099Z,59.38
2023-05-19T11:34:44.697Z,60.87
2023-05-19T11:37:12.068Z,59.71
2023-05-19T11:39:39.737Z,63.49
2023-05-19T11:42:08.718Z,63.76
2023-05-19T11:44:35.238Z,60.61
2023-05-19T11:47:02.136Z,65.14
2023-05-19T11:49:29.606Z,57.02
2023-05-19T11:51:56.684Z,56.36
2023-05-19T11:54:30.489Z,56.37
2023-05-19T11:57:00.135Z,57.80
2023-05-19T11:59:36.006Z,56.89
2023-05-19T12:02:16.061Z,60.88
2023-05-19T12:04:43.075Z,61.47
2023-05-19T12:07:12.558Z,63.86
2023-05-19T12:09:39.670Z,60.80
2023-05-19T12:12:06.710Z,61.96
2023-05-19T12:14:34.522Z,72.05
2023-05-19T12:17:12.112Z,64.25
2023-05-19T12:19:44.598Z,60.93
2023-05-19T12:22:11.844Z,59.56
2023-05-19T12:24:39.245Z,60.40
2023-05-19T12:27:17.308Z,62.88
2023-05-19T12:29:49.170Z,63.79
2023-05-19T12:32:15.754Z,60.61
2023-05-19T12:34:42.751Z,76.31
2023-05-19T12:37:11.296Z,78.54
2023-05-19T12:39:38.396Z,76.51
2023-05-19T12:42:08.543Z,62.29
2023-05-19T12:44:52.817Z,83.32
2023-05-19T12:47:20.638Z,88.06
2023-05-19T12:49:57.714Z,88.42
2023-05-19T12:52:24.523Z,86.43
2023-05-19T12:55:07.773Z,84.44
2023-05-19T12:57:35.606Z,67.70
2023-05-19T13:00:11.709Z,65.05
2023-05-19T13:02:55.377Z,61.86
2023-05-19T13:05:22.931Z,57.79
2023-05-19T13:08:00.043Z,58.86
2023-05-19T13:10:28.329Z,70.96
2023-05-19T13:12:55.833Z,69.01
2023-05-19T13:15:26.475Z,65.94
2023-05-19T13:17:54.000Z,60.89
2023-05-19T13:20:22.116Z,63.86
2023-05-19T13:22:49.238Z,61.97
2023-05-19T13:25:16.999Z,60.41
2023-05-19T13:27:48.673Z,61.19
2023-05-19T13:30:16.390Z,69.35
2023-05-19T13:32:42.994Z,67.18
2023-05-19T13:35:10.817Z,69.07
2023-05-19T13:37:37.870Z,62.84
2023-05-19T13:40:05.047Z,78.41
2023-05-19T13:42:35.173Z,70.40
2023-05-19T13:45:02.457Z,66.85
2023-05-19T13:47:29.582Z,73.14
2023-05-19T13:49:56.836Z,70.43
2023-05-19T13:52:23.610Z,75.30
2023-05-19T13:54:50.211Z,65.79
2023-05-19T13:57:16.986Z,70.28
2023-05-19T13:59:57.617Z,74.57
2023-05-19T14:02:28.284Z,68.75
2023-05-19T14:04:56.341Z,71.78
2023-05-19T14:07:22.853Z,79.36
2023-05-19T14:09:51.322Z,100.00
2023-05-19T14:12:18.661Z,100.00
2023-05-19T14:14:48.340Z,100.00
2023-05-19T14:17:17.182Z,93.98
2023-05-19T14:19:43.813Z,100.00
2023-05-19T14:22:10.565Z,100.00
2023-05-19T14:24:37.638Z,100.00
2023-05-19T14:27:04.341Z,100.00
2023-05-19T14:29:34.155Z,100.00
2023-05-19T14:32:01.085Z,100.00
2023-05-19T14:34:27.739Z,100.00
2023-05-19T14:36:54.333Z,100.00
2023-05-19T14:39:21.135Z,100.00
2023-05-19T14:41:49.485Z,100.00
2023-05-19T14:44:16.080Z,100.00
2023-05-19T14:46:42.737Z,100.00
2023-05-19T14:49:09.375Z,100.00
2023-05-19T14:51:36.124Z,100.00
2023-05-19T14:54:02.709Z,100.00
2023-05-19T14:56:29.316Z,100.00
2023-05-19T14:58:56.467Z,100.00
2023-05-19T15:01:23.436Z,100.00
2023-05-19T15:03:50.515Z,100.00
2023-05-19T15:06:17.157Z,100.00
2023-05-19T15:08:43.850Z,100.00
2023-05-19T15:11:10.457Z,100.00
2023-05-19T15:13:37.033Z,100.00
2023-05-19T15:16:16.114Z,100.00
2023-05-19T15:18:44.634Z,100.00
2023-05-19T15:21:11.270Z,100.00
2023-05-19T15:23:37.841Z,100.00
2023-05-19T15:26:04.590Z,100.00
2023-05-19T15:28:31.194Z,100.00
2023-05-19T15:30:57.769Z,100.00
2023-05-19T15:33:24.481Z,100.00
2023-05-19T15:35:52.268Z,100.00
2023-05-19T15:38:21.382Z,100.00
2023-05-19T15:40:48.111Z,100.00
2023-05-19T15:43:14.762Z,100.00
2023-05-19T15:45:41.691Z,100.00
2023-05-19T15:48:08.511Z,100.00
2023-05-19T15:50:35.652Z,100.00
2023-05-19T15:53:02.516Z,100.00
2023-05-19T15:55:29.197Z,100.00
2023-05-19T15:57:55.991Z,100.00
2023-05-19T16:00:22.625Z,100.00
2023-05-19T16:02:49.342Z,100.00
2023-05-19T16:05:16.766Z,100.00
2023-05-19T16:07:43.446Z,100.00
2023-05-19T16:10:10.207Z,100.00
2023-05-19T16:12:37.495Z,100.00
2023-05-19T16:15:04.346Z,100.00
2023-05-19T16:17:30.943Z,100.00
2023-05-19T16:19:57.517Z,100.00
2023-05-19T16:22:25.017Z,100.00
2023-05-19T16:24:52.298Z,100.00
2023-05-19T16:27:19.174Z,100.00
2023-05-19T16:29:46.053Z,100.00
2023-05-19T16:32:13.115Z,100.00
2023-05-19T16:34:39.897Z,100.00
2023-05-19T16:37:09.383Z,100.00
2023-05-19T16:39:37.229Z,100.00
2023-05-19T16:42:04.715Z,100.00
2023-05-19T16:44:31.492Z,100.00
2023-05-19T16:46:58.074Z,100.00
2023-05-19T16:49:24.711Z,100.00
2023-05-19T16:51:52.997Z,100.00
2023-05-19T16:54:19.822Z,100.00
2023-05-19T16:56:46.457Z,100.00
2023-05-19T16:59:13.215Z,100.00
2023-05-19T17:01:39.874Z,100.00
2023-05-19T17:04:06.533Z,100.00
2023-05-19T17:06:33.220Z,100.00
2023-05-19T17:08:59.885Z,100.00
2023-05-19T17:11:27.226Z,100.00
2023-05-19T17:13:53.822Z,100.00
2023-05-19T17:16:20.402Z,100.00
2023-05-19T17:18:48.120Z,100.00
2023-05-19T17:21:14.765Z,100.00
2023-05-19T17:23:41.810Z,100.00
2023-05-19T17:26:09.018Z,100.00
2023-05-19T17:28:35.762Z,100.00
2023-05-19T17:31:10.098Z,100.00
2023-05-19T17:33:36.883Z,100.00
2023-05-19T17:36:04.477Z,100.00
2023-05-19T17:38:32.331Z,100.00
2023-05-19T17:41:02.203Z,100.00
2023-05-19T17:43:29.407Z,100.00
2023-05-19T17:45:56.818Z,100.00
2023-05-19T17:48:25.910Z,100.00
2023-05-19T17:50:52.703Z,100.00
2023-05-19T17:53:19.711Z,100.00
2023-05-19T17:55:51.232Z,100.00
2023-05-19T17:58:19.310Z,100.00
2023-05-19T18:00:46.253Z,100.00
2023-05-19T18:03:13.242Z,100.00
2023-05-19T18:05:40.510Z,100.00
2023-05-19T18:08:09.382Z,100.00
2023-05-19T18:10:37.857Z,100.00
2023-05-19T18:13:05.605Z,100.00
2023-05-19T18:15:32.160Z,100.00
2023-05-19T18:17:58.817Z,100.00
2023-05-19T18:20:25.541Z,100.00
2023-05-19T18:22:52.165Z,100.00
2023-05-19T18:25:20.240Z,100.00
2023-05-19T18:27:47.494Z,100.00
2023-05-19T18:30:14.085Z,100.00
2023-05-19T18:32:40.983Z,100.00
2023-05-19T18:35:08.517Z,100.00
2023-05-19T18:37:35.888Z,100.00
2023-05-19T18:40:02.524Z,100.00
2023-05-19T18:42:29.202Z,100.00
2023-05-19T18:44:55.872Z,100.00
2023-05-19T18:47:23.122Z,100.00
2023-05-19T18:49:50.173Z,100.00
2023-05-19T18:52:16.818Z,100.00
2023-05-19T18:54:45.922Z,100.00
2023-05-19T18:57:12.904Z,100.00
2023-05-19T18:59:39.532Z,100.00
2023-05-19T19:02:07.009Z,100.00
2023-05-19T19:04:33.852Z,100.00
2023-05-19T19:07:01.168Z,100.00
2023-05-19T19:09:27.938Z,100.00
2023-05-19T19:11:54.519Z,100.00
2023-05-19T19:14:21.527Z,100.00
2023-05-19T19:16:48.127Z,100.00
2023-05-19T19:19:14.796Z,100.00
2023-05-19T19:21:42.056Z,100.00
2023-05-19T19:24:08.617Z,100.00
2023-05-19T19:26:35.306Z,100.00
2023-05-19T19:29:02.124Z,100.00
2023-05-19T19:31:28.850Z,100.00
2023-05-19T19:33:58.822Z,100.00
2023-05-19T19:36:26.480Z,100.00
2023-05-19T19:38:53.053Z,100.00
2023-05-19T19:41:20.090Z,100.00
2023-05-19T19:43:46.710Z,100.00
2023-05-19T19:46:13.311Z,100.00
2023-05-19T19:48:40.131Z,100.00
2023-05-19T19:51:06.705Z,100.00
2023-05-19T19:53:33.298Z,100.00
2023-05-19T19:56:01.695Z,100.00
2023-05-19T19:58:29.167Z,100.00
2023-05-19T20:00:57.514Z,100.00
2023-05-19T20:03:24.592Z,100.00
2023-05-19T20:05:51.549Z,100.00
2023-05-19T20:08:20.046Z,100.00
2023-05-19T20:10:48.358Z,100.00
2023-05-19T20:13:15.786Z,100.00
2023-05-19T20:15:43.420Z,100.00
2023-05-19T20:18:10.988Z,100.00
2023-05-19T20:20:41.045Z,100.00
2023-05-19T20:23:08.911Z,100.00
2023-05-19T20:25:54.381Z,100.00
2023-05-19T20:28:26.341Z,100.00
2023-05-19T20:30:52.896Z,100.00
2023-05-19T20:33:19.509Z,100.00
2023-05-19T20:35:46.454Z,100.00
2023-05-19T20:38:13.032Z,100.00
2023-05-19T20:40:40.040Z,100.00
2023-05-19T20:43:06.591Z,100.00
2023-05-19T20:45:33.518Z,100.00
2023-05-19T20:48:00.957Z,100.00
2023-05-19T20:50:27.530Z,100.00
2023-05-19T20:52:54.353Z,100.00
2023-05-19T20:55:21.060Z,100.00
2023-05-19T20:57:47.611Z,100.00
2023-05-19T21:00:14.546Z,100.00
2023-05-19T21:02:41.130Z,100.00
2023-05-19T21:05:08.211Z,100.00
2023-05-19T21:07:35.078Z,100.00
2023-05-19T21:10:01.678Z,100.00
2023-05-19T21:12:33.952Z,100.00
2023-05-19T21:15:01.707Z,100.00
2023-05-19T21:17:28.571Z,100.00
2023-05-19T21:19:59.422Z,100.00
2023-05-19T21:22:26.953Z,100.00
2023-05-19T21:24:54.756Z,100.00
2023-05-19T21:27:21.634Z,100.00
2023-05-19T21:29:52.967Z,100.00
2023-05-19T21:32:20.718Z,100.00
2023-05-19T21:34:47.560Z,100.00
2023-05-19T21:37:14.436Z,100.00
2023-05-19T21:39:40.998Z,100.00
2023-05-19T21:42:07.546Z,100.00
2023-05-19T21:44:34.198Z,100.00
2023-05-19T21:47:00.991Z,100.00
2023-05-19T21:49:27.594Z,100.00
2023-05-19T21:51:54.147Z,100.00
2023-05-19T21:54:20.666Z,100.00
2023-05-19T21:56:47.183Z,100.00
2023-05-19T21:59:13.760Z,100.00
2023-05-19T22:01:40.832Z,100.00
2023-05-19T22:04:07.825Z,100.00
2023-05-19T22:06:34.488Z,100.00
2023-05-19T22:09:02.559Z,100.00
2023-05-19T22:11:29.185Z,100.00
2023-05-19T22:13:55.946Z,100.00
2023-05-19T22:16:22.781Z,100.00
2023-05-19T22:18:49.652Z,100.00
2023-05-19T22:21:16.292Z,100.00
2023-05-19T22:23:43.788Z,100.00
2023-05-19T22:26:10.703Z,100.00
2023-05-19T22:28:37.260Z,100.00
2023-05-19T22:31:04.376Z,100.00
2023-05-19T22:33:31.045Z,100.00
2023-05-19T22:35:58.095Z,100.00
2023-05-19T22:38:24.691Z,100.00
2023-05-19T22:40:51.290Z,100.00
2023-05-19T22:43:17.879Z,100.00
2023-05-19T22:45:44.622Z,100.00
2023-05-19T22:48:11.656Z,100.00
2023-05-19T22:50:38.338Z,100.00
2023-05-19T22:53:04.917Z,100.00
2023-05-19T22:55:31.725Z,100.00
2023-05-19T22:57:58.514Z,100.00
2023-05-19T23:00:25.253Z,100.00
2023-05-19T23:02:51.895Z,100.00
2023-05-19T23:05:18.507Z,100.00
2023-05-19T23:07:45.115Z,100.00
2023-05-19T23:10:11.840Z,100.00
2023-05-19T23:12:39.953Z,100.00
2023-05-19T23:15:07.971Z,100.00
2023-05-19T23:17:34.645Z,100.00
2023-05-19T23:20:01.231Z,100.00
2023-05-19T23:22:27.929Z,100.00
2023-05-19T23:24:54.470Z,100.00
2023-05-19T23:27:21.003Z,100.00
2023-05-19T23:29:49.087Z,100.00
2023-05-19T23:32:16.092Z,100.00
2023-05-19T23:34:42.769Z,100.00
2023-05-19T23:37:09.315Z,100.00
2023-05-19T23:39:38.188Z,100.00
2023-05-19T23:42:05.751Z,100.00
2023-05-19T23:44:32.375Z,100.00
2023-05-19T23:46:59.047Z,100.00
2023-05-19T23:49:25.656Z,100.00
2023-05-19T23:51:52.392Z,100.00
2023-05-19T23:54:18.971Z,100.00
2023-05-19T23:56:45.666Z,100.00
2023-05-19T23:59:12.424Z,100.00
